Time;durP1;ratioP1;P1;durP2;ratioP2;P2;SDS_P1;SDS_P2;PMS_P1;PMS_P2;Temp;Humidity;BMP_temperature;BMP_pressure;BME280_temperature;BME280_humidity;BME280_pressure;Samples;Min_cycle;Max_cycle;Signal;HPM_P1;HPM_P2
2023/10/30 00:01:38;;;;;;;2.05;1.27;;;;;;;11.44;100.00;97375.38;4122204;28;20791;-44
2023/10/30 00:03:40;;;;;;;2.65;1.85;;;;;;;11.47;100.00;97434.28;4119332;28;20289;-44
2023/10/30 00:05:41;;;;;;;0.57;0.57;;;;;;;11.47;100.00;97446.06;4102761;28;20287;-45
2023/10/30 00:07:43;;;;;;;0.80;0.80;;;;;;;11.38;100.00;97441.44;4107307;28;20211;-44
2023/10/30 00:09:45;;;;;;;2.88;1.13;;;;;;;11.40;100.00;97429.13;4122448;28;20209;-44
2023/10/30 00:11:47;;;;;;;1.55;0.90;;;;;;;11.34;100.00;97457.63;4135676;28;20271;-44
2023/10/30 00:13:49;;;;;;;1.20;1.20;;;;;;;11.29;100.00;97419.31;4102876;28;20728;-43
2023/10/30 00:15:51;;;;;;;1.05;0.90;;;;;;;11.28;100.00;97425.88;4133124;28;20357;-44
2023/10/30 00:17:53;;;;;;;1.30;1.05;;;;;;;11.27;100.00;97412.47;4117867;28;20241;-43
2023/10/30 00:19:54;;;;;;;0.60;0.60;;;;;;;11.20;100.00;97434.69;4108679;28;20222;-43
2023/10/30 00:21:56;;;;;;;4.22;1.30;;;;;;;11.23;100.00;97420.41;4132165;28;20284;-44
2023/10/30 00:23:58;;;;;;;1.38;1.23;;;;;;;11.25;100.00;97395.50;4103897;28;20270;-43
2023/10/30 00:26:00;;;;;;;0.70;0.70;;;;;;;11.17;100.00;97394.16;4135412;28;20242;-44
2023/10/30 00:28:02;;;;;;;1.58;0.90;;;;;;;11.18;100.00;97425.91;4100595;28;20218;-44
2023/10/30 00:30:05;;;;;;;0.75;0.75;;;;;;;11.12;100.00;97427.03;4118758;28;20673;-43
2023/10/30 00:32:08;;;;;;;0.52;0.52;;;;;;;11.16;100.00;97428.13;4119822;28;20240;-44
2023/10/30 00:34:11;;;;;;;1.05;0.98;;;;;;;11.09;100.00;97427.59;4102251;28;20792;-44
2023/10/30 00:36:13;;;;;;;1.17;1.13;;;;;;;11.09;100.00;97438.56;4119303;28;20286;-43
2023/10/30 00:38:15;;;;;;;4.80;1.25;;;;;;;11.09;100.00;97438.56;4118803;28;20349;-44
2023/10/30 00:40:16;;;;;;;0.80;0.80;;;;;;;11.02;100.00;97438.03;4120030;28;20206;-44
2023/10/30 00:42:18;;;;;;;8.55;0.88;;;;;;;10.99;100.00;97449.56;4136128;28;20260;-45
2023/10/30 00:44:20;;;;;;;2.30;1.25;;;;;;;10.96;100.00;97439.16;4086328;28;20613;-43
2023/10/30 00:46:22;;;;;;;0.65;0.45;;;;;;;11.02;100.00;97426.25;4133321;28;20272;-43
2023/10/30 00:48:25;;;;;;;3.35;1.15;;;;;;;10.99;100.00;97422.19;4119579;28;20205;-45
2023/10/30 00:50:27;;;;;;;6.43;1.00;;;;;;;10.96;100.00;97433.66;4103583;28;20293;-44
2023/10/30 00:52:29;;;;;;;0.70;0.70;;;;;;;11.00;100.00;97456.66;4104077;28;20215;-44
2023/10/30 00:54:32;;;;;;;0.50;0.50;;;;;;;10.96;100.00;97439.16;4100890;28;20221;-44
2023/10/30 00:56:33;;;;;;;0.70;0.70;;;;;;;10.95;100.00;97464.88;4133607;28;20213;-44
2023/10/30 00:58:35;;;;;;;0.60;0.60;;;;;;;10.90;100.00;97484.03;4118002;28;20260;-44
2023/10/30 01:00:37;;;;;;;0.93;0.93;;;;;;;10.89;100.00;97470.63;4118095;28;20660;-44
2023/10/30 01:02:41;;;;;;;1.00;0.93;;;;;;;10.94;100.00;97471.47;4133711;28;20947;-45
2023/10/30 01:04:43;;;;;;;0.77;0.77;;;;;;;10.88;100.00;97469.81;4100948;28;20319;-44
2023/10/30 01:06:46;;;;;;;0.70;0.70;;;;;;;10.88;100.00;97464.34;4118441;28;20237;-44
2023/10/30 01:08:47;;;;;;;0.80;0.80;;;;;;;10.89;100.00;97446.84;4119653;28;20229;-44
2023/10/30 01:10:49;;;;;;;3.05;1.13;;;;;;;10.87;100.00;97436.47;4118761;28;20222;-44
2023/10/30 01:12:51;;;;;;;0.93;0.93;;;;;;;10.83;100.00;97449.88;4132698;28;20276;-46
2023/10/30 01:14:53;;;;;;;12.77;0.88;;;;;;;10.82;100.00;97454.50;4101213;28;20226;-44
2023/10/30 01:16:54;;;;;;;1.50;1.40;;;;;;;10.84;100.00;97457.78;4099664;28;20206;-44
2023/10/30 01:18:56;;;;;;;0.63;0.63;;;;;;;10.84;100.00;97446.84;4086807;28;20291;-44
2023/10/30 01:20:58;;;;;;;4.25;1.00;;;;;;;10.81;100.00;97451.25;4107514;28;20693;-46
2023/10/30 01:22:59;;;;;;;1.38;0.93;;;;;;;10.88;100.00;97431.50;4122355;28;20272;-45
2023/10/30 01:25:01;;;;;;;0.70;0.70;;;;;;;10.82;100.00;97429.88;4136864;28;20244;-44
2023/10/30 01:27:04;;;;;;;2.83;0.70;;;;;;;10.79;100.00;97446.84;4121743;28;20232;-47
2023/10/30 01:29:10;;;;;;;1.38;1.25;;;;;;;10.76;100.00;97437.56;4136198;28;20606;-44
2023/10/30 01:31:11;;;;;;;0.57;0.57;;;;;;;10.83;100.00;97422.50;4120555;28;20855;-45
2023/10/30 01:33:16;;;;;;;8.45;0.70;;;;;;;10.81;100.00;97418.41;4123422;28;20741;-44
2023/10/30 01:35:18;;;;;;;1.30;1.00;;;;;;;10.72;100.00;97420.88;4120306;28;20272;-44
2023/10/30 01:37:20;;;;;;;0.70;0.70;;;;;;;10.77;100.00;97428.25;4123747;28;20595;-45
2023/10/30 01:39:22;;;;;;;1.33;0.90;;;;;;;10.76;100.00;97426.63;4105752;28;20262;-44
2023/10/30 01:41:24;;;;;;;0.98;0.68;;;;;;;10.74;100.00;97417.88;4121371;28;20312;-45
2023/10/30 01:43:30;;;;;;;1.17;1.17;;;;;;;10.76;100.00;97415.69;4122634;28;20201;-46
2023/10/30 01:45:32;;;;;;;0.70;0.70;;;;;;;10.76;100.00;97410.22;4123037;28;20317;-44
2023/10/30 01:47:33;;;;;;;0.60;0.60;;;;;;;10.77;100.00;97422.78;4121715;28;20211;-44
2023/10/30 01:49:35;;;;;;;2.80;1.05;;;;;;;10.78;100.00;97426.06;4120295;28;20249;-44
2023/10/30 01:51:37;;;;;;;0.60;0.60;;;;;;;10.77;100.00;97417.31;4089004;28;20212;-45
2023/10/30 01:53:39;;;;;;;0.68;0.60;;;;;;;10.77;100.00;97407.19;4105350;28;20267;-46
2023/10/30 01:55:41;;;;;;;0.82;0.70;;;;;;;10.82;100.00;97395.41;4120929;28;20233;-46
2023/10/30 01:57:43;;;;;;;2.78;1.67;;;;;;;10.81;100.00;97397.31;4120669;28;20218;-46
2023/10/30 01:59:46;;;;;;;0.52;0.52;;;;;;;10.73;100.00;97389.69;4101325;28;20211;-44
2023/10/30 02:01:48;;;;;;;0.70;0.70;;;;;;;10.75;100.00;97392.16;4102322;28;20242;-45
2023/10/30 02:03:52;;;;;;;0.60;0.60;;;;;;;10.77;100.00;97408.00;4110989;28;20759;-44
2023/10/30 02:05:54;;;;;;;0.85;0.80;;;;;;;10.77;100.00;97406.38;4121094;28;20231;-45
2023/10/30 02:07:56;;;;;;;2.20;0.95;;;;;;;10.75;100.00;97403.09;4138340;28;20222;-45
2023/10/30 02:09:58;;;;;;;0.50;0.50;;;;;;;10.76;100.00;97421.16;4088568;28;20676;-45
2023/10/30 02:11:59;;;;;;;0.80;0.80;;;;;;;10.75;100.00;97406.63;4105838;28;20254;-45
2023/10/30 02:14:01;;;;;;;0.38;0.38;;;;;;;10.74;100.00;97428.84;4103868;28;20597;-44
2023/10/30 02:16:03;;;;;;;0.47;0.47;;;;;;;10.79;100.00;97411.28;4119384;28;20230;-44
2023/10/30 02:18:05;;;;;;;0.70;0.70;;;;;;;10.77;100.00;97420.88;4118530;28;20261;-44
2023/10/30 02:20:07;;;;;;;0.65;0.65;;;;;;;10.79;100.00;97405.81;4121335;28;20273;-44
2023/10/30 02:22:09;;;;;;;3.30;0.88;;;;;;;10.81;100.00;97396.53;4120516;28;20277;-44
2023/10/30 02:24:12;;;;;;;0.63;0.63;;;;;;;10.76;100.00;97388.31;4134874;28;20288;-44
2023/10/30 02:26:14;;;;;;;0.70;0.70;;;;;;;10.79;100.00;97389.38;4119902;28;20266;-46
2023/10/30 02:28:16;;;;;;;0.50;0.50;;;;;;;10.83;100.00;97386.94;4119847;28;20237;-44
2023/10/30 02:30:17;;;;;;;1.13;0.80;;;;;;;10.78;100.00;97379.53;4137833;28;20201;-44
2023/10/30 02:32:19;;;;;;;0.57;0.57;;;;;;;10.78;100.00;97360.38;4118328;28;20213;-45
2023/10/30 02:34:21;;;;;;;0.50;0.50;;;;;;;10.77;100.00;97364.22;4120826;28;20215;-47
2023/10/30 02:36:23;;;;;;;0.50;0.50;;;;;;;10.76;100.00;97360.97;4119182;28;20217;-44
2023/10/30 02:38:24;;;;;;;0.70;0.70;;;;;;;10.77;100.00;97369.69;4138229;28;20238;-44
2023/10/30 02:40:26;;;;;;;0.60;0.60;;;;;;;10.81;100.00;97367.22;4105013;28;20262;-44
2023/10/30 02:42:28;;;;;;;0.45;0.45;;;;;;;10.82;100.00;97356.00;4110064;28;20227;-44
2023/10/30 02:44:30;;;;;;;0.60;0.60;;;;;;;10.77;100.00;97374.38;4112079;28;20210;-45
2023/10/30 02:46:32;;;;;;;0.70;0.55;;;;;;;10.80;100.00;97379.28;4120657;28;20241;-45
2023/10/30 02:48:33;;;;;;;0.70;0.70;;;;;;;10.80;100.00;97365.59;4137343;28;20341;-44
2023/10/30 02:50:35;;;;;;;0.73;0.73;;;;;;;10.75;100.00;97367.53;4121058;28;20206;-44
2023/10/30 02:52:37;;;;;;;0.90;0.90;;;;;;;10.75;100.00;97364.78;4119346;28;20253;-45
2023/10/30 02:54:39;;;;;;;1.02;0.75;;;;;;;10.75;100.00;97359.31;4137199;28;20234;-45
2023/10/30 02:56:40;;;;;;;1.70;0.85;;;;;;;10.73;100.00;97343.19;4105589;28;20218;-45
2023/10/30 02:58:42;;;;;;;0.57;0.57;;;;;;;10.75;100.00;97354.66;4087522;28;20224;-45
2023/10/30 03:00:44;;;;;;;0.50;0.50;;;;;;;10.77;100.00;97365.34;4106767;28;20207;-44
2023/10/30 03:02:46;;;;;;;0.60;0.60;;;;;;;10.80;100.00;97357.38;4118945;28;20321;-44
2023/10/30 03:04:48;;;;;;;1.17;0.80;;;;;;;10.77;100.00;97368.91;4117635;28;21124;-43
2023/10/30 03:06:50;;;;;;;0.65;0.65;;;;;;;10.84;100.00;97370.22;4106074;28;20329;-44
2023/10/30 03:08:52;;;;;;;0.47;0.47;;;;;;;10.78;100.00;97379.53;4101700;28;20211;-44
2023/10/30 03:10:53;;;;;;;1.45;1.27;;;;;;;10.83;100.00;97365.84;4120477;28;20630;-44
2023/10/30 03:12:56;;;;;;;0.88;0.88;;;;;;;10.82;100.00;97366.94;4121541;28;20202;-46
2023/10/30 03:14:57;;;;;;;0.68;0.60;;;;;;;10.85;100.00;97371.06;4120223;28;20237;-44
2023/10/30 03:16:59;;;;;;;0.50;0.50;;;;;;;10.87;100.00;97382.53;4122184;28;20688;-44
2023/10/30 03:19:01;;;;;;;4.18;0.90;;;;;;;10.88;100.00;97381.44;4104857;28;20222;-46
2023/10/30 03:21:04;;;;;;;0.63;0.63;;;;;;;10.92;100.00;97366.91;4107000;28;20229;-45
2023/10/30 03:23:08;;;;;;;0.60;0.60;;;;;;;10.89;100.00;97383.06;4137608;28;20268;-43
2023/10/30 03:25:10;;;;;;;0.82;0.82;;;;;;;10.88;100.00;97377.88;4134452;28;20233;-44
2023/10/30 03:27:12;;;;;;;0.63;0.63;;;;;;;10.85;100.00;97388.28;4134875;28;20687;-45
2023/10/30 03:29:14;;;;;;;0.98;0.90;;;;;;;10.90;100.00;97382.78;4105581;28;20238;-45
2023/10/30 03:31:15;;;;;;;0.98;0.90;;;;;;;10.88;100.00;97385.00;4119751;28;20207;-44
2023/10/30 03:33:20;;;;;;;1.08;0.95;;;;;;;10.81;100.00;97391.03;4119867;28;20310;-44
2023/10/30 03:35:22;;;;;;;0.73;0.73;;;;;;;10.82;100.00;97381.72;4123222;28;20265;-46
2023/10/30 03:37:24;;;;;;;0.60;0.60;;;;;;;10.89;100.00;97394.84;4117197;28;20216;-44
2023/10/30 03:39:26;;;;;;;0.82;0.75;;;;;;;10.95;100.00;97393.72;4102227;28;20253;-43
2023/10/30 03:41:28;;;;;;;0.70;0.70;;;;;;;11.04;100.00;97386.56;4116276;28;20234;-44
2023/10/30 03:43:29;;;;;;;1.75;0.95;;;;;;;11.03;100.00;97390.41;4119300;28;20257;-44
2023/10/30 03:45:35;;;;;;;0.52;0.52;;;;;;;11.04;100.00;97392.03;4106944;28;20597;-45
2023/10/30 03:47:37;;;;;;;0.90;0.90;;;;;;;11.03;100.00;97398.59;4120988;28;20206;-45
2023/10/30 03:49:38;;;;;;;0.70;0.70;;;;;;;10.97;100.00;97397.00;4102684;28;20250;-44
2023/10/30 03:51:40;;;;;;;0.80;0.80;;;;;;;10.98;100.00;97387.66;4103267;28;20269;-44
2023/10/30 03:53:42;;;;;;;0.88;0.88;;;;;;;11.01;100.00;97389.88;4119895;28;20686;-44
2023/10/30 03:55:44;;;;;;;0.70;0.70;;;;;;;11.02;100.00;97388.75;4120606;28;20231;-44
2023/10/30 03:57:45;;;;;;;0.68;0.68;;;;;;;11.00;100.00;97380.03;4101931;28;20277;-46
2023/10/30 03:59:47;;;;;;;0.70;0.70;;;;;;;11.05;100.00;97370.97;4105230;28;20203;-45
2023/10/30 04:01:49;;;;;;;0.50;0.50;;;;;;;10.99;100.00;97370.19;4115322;28;20230;-46
2023/10/30 04:03:51;;;;;;;0.70;0.70;;;;;;;10.98;100.00;97364.97;4119348;28;20361;-44
2023/10/30 04:06:00;;;;;;;1.35;0.80;;;;;;;10.97;100.00;97375.09;4119835;28;20736;-45
2023/10/30 04:08:01;;;;;;;0.68;0.68;;;;;;;11.05;100.00;97382.72;4107317;28;20700;-45
2023/10/30 04:10:03;;;;;;;0.85;0.73;;;;;;;11.01;100.00;97378.91;4118150;28;20218;-44
2023/10/30 04:12:06;;;;;;;0.60;0.60;;;;;;;11.04;100.00;97381.06;4134596;28;20220;-45
2023/10/30 04:14:07;;;;;;;0.85;0.70;;;;;;;11.07;100.00;97386.00;4120231;28;20222;-44
2023/10/30 04:16:10;;;;;;;0.90;0.90;;;;;;;11.02;100.00;97377.81;4134239;28;20233;-44
2023/10/30 04:18:12;;;;;;;0.60;0.60;;;;;;;11.00;100.00;97374.53;4119392;28;20249;-45
2023/10/30 04:20:14;;;;;;;0.60;0.60;;;;;;;11.04;100.00;97375.59;4136184;28;20226;-44
2023/10/30 04:22:16;;;;;;;0.50;0.50;;;;;;;10.99;100.00;97383.88;4118127;28;20689;-45
2023/10/30 04:24:18;;;;;;;1.00;0.90;;;;;;;10.96;100.00;97384.41;4103744;28;20752;-44
2023/10/30 04:26:20;;;;;;;0.60;0.60;;;;;;;11.00;100.00;97387.41;4107518;28;20318;-44
2023/10/30 04:28:21;;;;;;;1.02;1.02;;;;;;;10.93;100.00;97389.63;4110143;28;20269;-45
2023/10/30 04:30:23;;;;;;;0.63;0.63;;;;;;;10.89;100.00;97389.38;4119284;28;20229;-44
2023/10/30 04:32:25;;;;;;;0.80;0.80;;;;;;;10.92;100.00;97388.78;4101693;28;20674;-44
2023/10/30 04:34:27;;;;;;;0.57;0.57;;;;;;;10.89;100.00;97386.63;4102266;28;20320;-46
2023/10/30 04:36:29;;;;;;;0.65;0.65;;;;;;;10.89;100.00;97383.88;4118614;28;20992;-46
2023/10/30 04:38:31;;;;;;;0.47;0.47;;;;;;;10.92;100.00;97377.84;4136699;28;20611;-44
2023/10/30 04:40:33;;;;;;;0.60;0.60;;;;;;;10.91;100.00;97370.72;4101569;28;20215;-45
2023/10/30 04:42:35;;;;;;;0.73;0.73;;;;;;;10.90;100.00;97369.09;4117441;28;20227;-46
2023/10/30 04:44:37;;;;;;;0.50;0.50;;;;;;;10.88;100.00;97382.25;4118223;28;20203;-44
2023/10/30 04:46:38;;;;;;;0.50;0.50;;;;;;;10.85;100.00;97382.00;4102655;28;20215;-44
2023/10/30 04:48:40;;;;;;;0.65;0.65;;;;;;;10.88;100.00;97393.19;4118657;28;20256;-45
2023/10/30 04:50:42;;;;;;;0.70;0.70;;;;;;;10.92;100.00;97394.25;4133295;28;20671;-44
2023/10/30 04:52:44;;;;;;;0.50;0.50;;;;;;;10.92;100.00;97388.78;4118880;28;20202;-45
2023/10/30 04:54:45;;;;;;;0.60;0.60;;;;;;;10.90;100.00;97385.53;4099177;28;20660;-45
2023/10/30 04:56:47;;;;;;;0.50;0.50;;;;;;;10.91;100.00;97409.06;4106533;28;20294;-45
2023/10/30 04:58:49;;;;;;;0.52;0.52;;;;;;;10.98;100.00;97409.56;4105357;28;20749;-44
2023/10/30 05:00:51;;;;;;;0.85;0.80;;;;;;;11.02;100.00;97418.03;4102458;28;20207;-43
2023/10/30 05:02:52;;;;;;;0.50;0.50;;;;;;;10.97;100.00;97429.84;4132251;28;20763;-44
2023/10/30 05:04:54;;;;;;;0.70;0.70;;;;;;;11.01;100.00;97425.44;4118247;28;20226;-45
2023/10/30 05:06:59;;;;;;;0.50;0.50;;;;;;;10.95;100.00;97426.56;4104336;28;20254;-44
2023/10/30 05:09:01;;;;;;;1.27;0.65;;;;;;;10.99;100.00;97429.56;4136178;28;20217;-44
2023/10/30 05:11:03;;;;;;;0.70;0.70;;;;;;;11.01;100.00;97439.13;4134615;28;20268;-45
2023/10/30 05:13:04;;;;;;;0.65;0.65;;;;;;;11.03;100.00;97442.41;4117882;28;20210;-44
2023/10/30 05:15:08;;;;;;;0.65;0.65;;;;;;;11.03;100.00;97452.56;4106291;28;20230;-45
2023/10/30 05:17:10;;;;;;;0.40;0.40;;;;;;;11.02;100.00;97448.97;4116479;28;20214;-48
2023/10/30 05:19:11;;;;;;;1.90;0.80;;;;;;;11.07;100.00;97454.44;4116364;28;20203;-44
2023/10/30 05:21:13;;;;;;;0.40;0.40;;;;;;;11.13;100.00;97457.97;4134453;28;20235;-44
2023/10/30 05:23:16;;;;;;;0.82;0.40;;;;;;;11.11;100.00;97461.00;4118407;28;20240;-44
2023/10/30 05:25:18;;;;;;;0.70;0.57;;;;;;;11.09;100.00;97457.72;4114995;28;20286;-44
2023/10/30 05:27:30;;;;;;;0.75;0.75;;;;;;;11.14;100.00;97451.41;4101908;28;20327;-45
2023/10/30 05:29:32;;;;;;;0.50;0.50;;;;;;;11.06;100.00;97444.59;4116225;28;20674;-46
2023/10/30 05:31:34;;;;;;;0.40;0.40;;;;;;;11.10;100.00;97448.41;4118813;28;20207;-45
2023/10/30 05:33:36;;;;;;;3.03;0.60;;;;;;;11.04;100.00;97446.78;4102129;28;20239;-46
2023/10/30 05:35:37;;;;;;;1.33;0.60;;;;;;;11.05;100.00;97432.00;4133686;28;20230;-44
2023/10/30 05:37:39;;;;;;;0.30;0.30;;;;;;;11.03;100.00;97431.47;4109510;28;20897;-45
2023/10/30 05:39:42;;;;;;;0.30;0.30;;;;;;;11.05;100.00;97421.03;4116590;28;20270;-44
2023/10/30 05:41:44;;;;;;;0.60;0.60;;;;;;;11.09;100.00;97415.81;4101597;28;20781;-46
2023/10/30 05:43:51;;;;;;;0.70;0.70;;;;;;;11.01;100.00;97410.94;4102325;28;20839;-45
2023/10/30 05:45:53;;;;;;;0.40;0.40;;;;;;;11.12;100.00;97418.81;4135019;28;20226;-45
2023/10/30 05:47:54;;;;;;;1.25;1.25;;;;;;;11.01;100.00;97408.19;4116563;28;20672;-46
2023/10/30 05:49:56;;;;;;;0.55;0.55;;;;;;;10.97;100.00;97407.94;4133898;28;20221;-47
2023/10/30 05:51:59;;;;;;;0.68;0.63;;;;;;;11.01;100.00;97419.97;4100184;28;20296;-47
2023/10/30 05:54:01;;;;;;;0.60;0.60;;;;;;;11.04;100.00;97429.56;4101938;28;20446;-44
2023/10/30 05:56:03;;;;;;;0.57;0.57;;;;;;;11.09;100.00;97444.03;4118640;28;20398;-47
2023/10/30 05:58:05;;;;;;;0.43;0.43;;;;;;;11.01;100.00;97444.63;4100958;28;20249;-45
2023/10/30 06:00:07;;;;;;;0.47;0.47;;;;;;;11.03;100.00;97428.72;4105564;28;20356;-46
2023/10/30 06:02:09;;;;;;;0.50;0.50;;;;;;;11.06;100.00;97425.44;4103770;28;20234;-46
2023/10/30 06:04:12;;;;;;;0.52;0.52;;;;;;;11.03;100.00;97417.78;4115944;28;20207;-48
2023/10/30 06:06:14;;;;;;;0.50;0.50;;;;;;;11.00;100.00;97418.34;4118313;28;20234;-45
2023/10/30 06:08:18;;;;;;;0.75;0.60;;;;;;;10.99;100.00;97422.19;4118165;28;20207;-47
2023/10/30 06:10:23;;;;;;;0.50;0.50;;;;;;;11.02;100.00;97413.41;4120638;28;20576;-45
2023/10/30 06:12:25;;;;;;;0.68;0.68;;;;;;;11.10;100.00;97418.28;4101251;28;20212;-45
2023/10/30 06:14:27;;;;;;;1.80;0.60;;;;;;;11.02;100.00;97416.13;4119563;28;20212;-43
2023/10/30 06:16:28;;;;;;;0.47;0.47;;;;;;;11.00;100.00;97423.81;4111291;28;20273;-44
2023/10/30 06:18:30;;;;;;;0.40;0.40;;;;;;;10.94;100.00;97424.94;4119654;28;20211;-46
2023/10/30 06:20:32;;;;;;;0.70;0.70;;;;;;;11.07;100.00;97418.03;4136496;28;20847;-46
2023/10/30 06:22:33;;;;;;;0.57;0.57;;;;;;;11.04;100.00;97408.44;4100847;28;20223;-44
2023/10/30 06:24:35;;;;;;;1.08;0.80;;;;;;;11.11;100.00;97403.50;4103761;28;20211;-44
2023/10/30 06:26:43;;;;;;;0.40;0.40;;;;;;;11.09;100.00;97404.88;4121729;28;20243;-44
2023/10/30 06:28:44;;;;;;;0.60;0.60;;;;;;;11.06;100.00;97417.22;4107576;28;20683;-45
2023/10/30 06:30:46;;;;;;;1.38;0.60;;;;;;;10.96;100.00;97425.47;4120424;28;20537;-44
2023/10/30 06:32:48;;;;;;;0.40;0.40;;;;;;;10.93;100.00;97428.78;4103388;28;20210;-45
2023/10/30 06:34:50;;;;;;;0.70;0.70;;;;;;;10.92;100.00;97427.09;4107163;28;20237;-45
2023/10/30 06:36:51;;;;;;;0.40;0.40;;;;;;;10.93;100.00;97428.78;4105328;28;20556;-44
2023/10/30 06:38:55;;;;;;;1.38;1.02;;;;;;;10.95;100.00;97437.50;4101011;28;20218;-44
2023/10/30 06:40:59;;;;;;;0.50;0.47;;;;;;;11.00;100.00;97445.72;4104994;28;20226;-44
2023/10/30 06:43:01;;;;;;;0.57;0.57;;;;;;;10.99;100.00;97448.72;4105085;28;20285;-47
2023/10/30 06:45:03;;;;;;;0.50;0.50;;;;;;;10.93;100.00;97447.94;4118629;28;20676;-44
2023/10/30 06:47:05;;;;;;;0.63;0.63;;;;;;;10.94;100.00;97454.19;4122518;28;20241;-48
2023/10/30 06:49:08;;;;;;;1.30;0.88;;;;;;;10.94;100.00;97457.78;4137509;28;20213;-47
2023/10/30 06:51:10;;;;;;;0.98;0.82;;;;;;;10.88;100.00;97458.88;4105680;28;20751;-47
2023/10/30 06:53:11;;;;;;;0.70;0.70;;;;;;;10.88;100.00;97453.41;4121297;28;20252;-45
2023/10/30 06:55:13;;;;;;;1.02;1.02;;;;;;;10.92;100.00;97453.69;4121209;28;20230;-44
2023/10/30 06:57:15;;;;;;;0.68;0.68;;;;;;;10.94;100.00;97456.94;4137321;28;20256;-44
2023/10/30 06:59:17;;;;;;;1.00;1.00;;;;;;;10.91;100.00;97452.84;4118687;28;20215;-49
2023/10/30 07:01:18;;;;;;;0.80;0.80;;;;;;;10.94;100.00;97455.03;4105178;28;20265;-45
2023/10/30 07:03:20;;;;;;;0.70;0.70;;;;;;;10.88;100.00;97458.88;4118977;28;20289;-46
2023/10/30 07:05:22;;;;;;;0.50;0.50;;;;;;;10.91;100.00;97458.31;4104476;28;20713;-44
2023/10/30 07:07:24;;;;;;;0.47;0.47;;;;;;;10.95;100.00;97473.09;4137180;28;20210;-46
2023/10/30 07:09:26;;;;;;;0.60;0.60;;;;;;;10.87;100.00;97472.03;4102297;28;20207;-44
2023/10/30 07:11:28;;;;;;;0.50;0.50;;;;;;;10.91;100.00;97480.22;4118647;28;20251;-46
2023/10/30 07:13:29;;;;;;;0.60;0.60;;;;;;;10.91;100.00;97490.34;4122659;28;20277;-43
2023/10/30 07:15:31;;;;;;;0.70;0.70;;;;;;;10.89;100.00;97487.88;4119858;28;20241;-46
2023/10/30 07:17:33;;;;;;;4.97;0.60;;;;;;;10.97;100.00;97492.78;4119004;28;20265;-45
2023/10/30 07:19:35;;;;;;;0.40;0.40;;;;;;;10.91;100.00;97480.22;4120461;28;20225;-45
2023/10/30 07:21:39;;;;;;;0.40;0.40;;;;;;;10.95;100.00;97464.88;4138261;28;20206;-44
2023/10/30 07:23:44;;;;;;;0.50;0.50;;;;;;;10.97;100.00;97461.88;4120526;28;20228;-44
2023/10/30 07:25:45;;;;;;;0.85;0.52;;;;;;;10.96;100.00;97463.78;4121135;28;20226;-45
2023/10/30 07:27:47;;;;;;;0.80;0.75;;;;;;;10.96;100.00;97466.53;4138187;28;20205;-44
2023/10/30 07:29:49;;;;;;;0.40;0.40;;;;;;;10.99;100.00;97476.94;4136224;28;20237;-44
2023/10/30 07:31:51;;;;;;;0.75;0.75;;;;;;;11.02;100.00;97484.56;4138321;28;20217;-44
2023/10/30 07:33:53;;;;;;;0.55;0.55;;;;;;;11.06;100.00;97482.94;4120602;28;20202;-44
2023/10/30 07:35:55;;;;;;;0.63;0.63;;;;;;;11.03;100.00;97472.53;4135701;28;20250;-44
2023/10/30 07:37:56;;;;;;;0.65;0.65;;;;;;;11.01;100.00;97474.72;4137024;28;20225;-45
2023/10/30 07:39:58;;;;;;;0.68;0.68;;;;;;;11.01;100.00;97485.66;4088276;28;20289;-44
2023/10/30 07:42:01;;;;;;;0.60;0.60;;;;;;;11.02;100.00;97476.34;4104943;28;20211;-45
2023/10/30 07:44:03;;;;;;;0.65;0.65;;;;;;;11.04;100.00;97476.88;4119190;28;20296;-44
2023/10/30 07:46:05;;;;;;;0.40;0.40;;;;;;;11.02;100.00;97487.31;4108299;28;20309;-44
2023/10/30 07:48:07;;;;;;;0.50;0.50;;;;;;;11.02;100.00;97483.75;4137747;28;20198;-44
2023/10/30 07:50:09;;;;;;;0.50;0.50;;;;;;;11.05;100.00;97486.75;4104085;28;20219;-46
2023/10/30 07:52:11;;;;;;;0.57;0.57;;;;;;;11.04;100.00;97476.88;4100123;28;20274;-44
2023/10/30 07:54:13;;;;;;;0.45;0.45;;;;;;;11.05;100.00;97466.78;4136080;28;20634;-46
2023/10/30 07:56:15;;;;;;;0.50;0.50;;;;;;;11.12;100.00;97470.84;4103873;28;20251;-44
2023/10/30 07:58:21;;;;;;;0.40;0.40;;;;;;;11.06;100.00;97455.56;4136455;28;20434;-44
2023/10/30 08:00:23;;;;;;;0.40;0.40;;;;;;;11.10;100.00;97456.63;4120287;28;20221;-45
2023/10/30 08:02:25;;;;;;;0.50;0.50;;;;;;;11.11;100.00;97452.78;4103866;28;20303;-44
2023/10/30 08:04:27;;;;;;;0.50;0.50;;;;;;;11.11;100.00;97455.50;4103098;28;20235;-46
2023/10/30 08:06:29;;;;;;;9.48;0.60;;;;;;;11.12;100.00;97443.47;4132896;28;20216;-44
2023/10/30 08:08:30;;;;;;;0.40;0.40;;;;;;;11.07;100.00;97448.97;4099037;28;20207;-45
2023/10/30 08:10:32;;;;;;;0.40;0.40;;;;;;;11.08;100.00;97447.88;4102761;28;20240;-44
2023/10/30 08:12:34;;;;;;;0.57;0.57;;;;;;;11.19;100.00;97449.47;4134210;28;20324;-45
2023/10/30 08:14:36;;;;;;;0.50;0.50;;;;;;;11.14;100.00;97452.22;4120443;28;20705;-44
2023/10/30 08:16:38;;;;;;;0.50;0.50;;;;;;;11.15;100.00;97448.38;4104100;28;20207;-43
2023/10/30 08:18:40;;;;;;;2.15;0.55;;;;;;;11.15;100.00;97448.38;4117405;28;20225;-45
2023/10/30 08:20:42;;;;;;;0.40;0.40;;;;;;;11.17;100.00;97448.13;4120851;28;20225;-46
2023/10/30 08:22:43;;;;;;;0.50;0.50;;;;;;;11.20;100.00;97453.84;4100562;28;20217;-44
2023/10/30 08:24:45;;;;;;;0.50;0.50;;;;;;;11.15;100.00;97451.13;4100851;28;20274;-45
2023/10/30 08:41:03;;;;;;;1.75;1.02;;;;;;;11.23;100.00;97428.63;4827428;23;20182;-88
2023/10/30 08:43:04;;;;;;;0.47;0.47;;;;;;;11.28;100.00;97408.63;4075004;28;20264;-87
2023/10/30 08:45:07;;;;;;;0.40;0.40;;;;;;;11.35;100.00;97409.13;4086051;28;20252;-87
2023/10/30 08:47:08;;;;;;;8.40;0.90;;;;;;;11.40;100.00;97417.31;4077947;29;20291;-89
2023/10/30 08:49:10;;;;;;;0.88;0.88;;;;;;;11.31;100.00;97414.34;4098703;28;20215;-87
2023/10/30 08:51:12;;;;;;;0.55;0.50;;;;;;;11.33;100.00;97416.81;4095213;28;20231;-87
2023/10/30 08:53:24;;;;;;;0.50;0.50;;;;;;;11.33;100.00;97406.69;4079228;29;20759;-90
2023/10/30 08:55:25;;;;;;;1.02;1.02;;;;;;;11.37;100.00;97406.94;4074604;29;20611;-88
2023/10/30 08:57:27;;;;;;;0.40;0.40;;;;;;;11.41;100.00;97402.53;4079903;29;20208;-87
2023/10/30 08:59:29;;;;;;;0.50;0.50;;;;;;;11.42;100.00;97396.78;4091759;28;20203;-88
2023/10/30 09:01:34;;;;;;;0.50;0.50;;;;;;;11.41;100.00;97402.53;4082277;29;20236;-87
2023/10/30 09:03:35;;;;;;;0.63;0.63;;;;;;;11.47;100.00;97395.91;4089827;29;20243;-88
2023/10/30 09:05:37;;;;;;;0.68;0.68;;;;;;;11.44;100.00;97386.34;4088504;29;20283;-88
2023/10/30 09:07:41;;;;;;;0.70;0.70;;;;;;;11.50;100.00;97381.69;4081604;29;20627;-89
2023/10/30 09:09:45;;;;;;;1.25;0.65;;;;;;;11.45;100.00;97376.22;4077753;29;20301;-90
2023/10/30 09:11:47;;;;;;;0.60;0.60;;;;;;;11.48;100.00;97368.25;4081710;28;20263;-90
2023/10/30 09:13:49;;;;;;;0.50;0.50;;;;;;;11.55;100.00;97365.19;4081519;29;20200;-89
2023/10/30 09:15:51;;;;;;;0.50;0.50;;;;;;;11.54;100.00;97358.91;4079398;29;20217;-89
2023/10/30 09:17:52;;;;;;;0.40;0.40;;;;;;;11.56;100.00;97362.16;4099224;28;20690;-88
2023/10/30 09:19:54;;;;;;;0.38;0.38;;;;;;;11.56;100.00;97359.44;4073316;29;20716;-90
2023/10/30 09:21:56;;;;;;;0.40;0.40;;;;;;;11.57;100.00;97361.06;4075980;29;20700;-90
2023/10/30 09:24:00;;;;;;;3.45;0.75;;;;;;;11.63;100.00;97361.91;4072440;29;21856;-91
2023/10/30 09:26:03;;;;;;;0.50;0.50;;;;;;;11.63;100.00;97349.00;4097302;28;20636;-89
2023/10/30 09:28:07;;;;;;;0.60;0.60;;;;;;;11.59;100.00;97350.69;4081139;29;20207;-89
2023/10/30 09:30:10;;;;;;;0.52;0.52;;;;;;;11.60;100.00;97349.56;4081357;28;20239;-87
2023/10/30 09:32:11;;;;;;;0.60;0.60;;;;;;;11.66;100.00;97345.69;4093699;28;20215;-90
2023/10/30 09:34:13;;;;;;;0.50;0.50;;;;;;;11.67;100.00;97347.34;4088841;28;20255;-89
2023/10/30 09:36:15;;;;;;;0.40;0.40;;;;;;;11.74;100.00;97347.81;4075800;29;20212;-91
2023/10/30 09:38:16;;;;;;;0.80;0.80;;;;;;;11.77;100.00;97355.47;4088737;28;20282;-90
2023/10/30 09:40:19;;;;;;;0.68;0.45;;;;;;;11.80;100.00;97357.66;4092233;28;20725;-90
2023/10/30 09:42:20;;;;;;;0.50;0.50;;;;;;;11.73;100.00;97351.69;4075304;29;20223;-89